Sant Martí Sacalm





Hora UTC 05:55
Temperatura 12.0 ºC
Humedad 99.7 %
Presión 1025.3 hPa
Pluja 0.1 mm
Velocidad viento 19.9 km/h
Dirección viento SW
Radiación solar 0.4 W/m²

Datos diarios 2021-10-19



Hora UTC (invierno +1h; verano +2h)
Temperatura (ºC) Humedad (%) Presión (hPa) Velocidad viento (km/h) Precipitación (mm) Radiación solar (W/m²)
Hora UTC Aire Humedad Presión Vel. Dir. Vel. Max Dir. Intent. máx 5 min. Rad. Sol.
00:05 13.4 99.0 1025.7 16.2 SW 16.2 SW 0.0 0.1
00:10 13.4 99.0 1025.7 15.4 SW 21.2 SW 0.0 0.1
00:15 13.4 99.1 1025.7 16.6 SW 22.6 WSW 0.0 0.1
00:20 13.4 99.1 1025.7 16.2 SW 23.0 WSW 0.0 0.1
00:25 13.3 99.1 1025.8 16.0 SW 24.0 SW 0.0 0.1
00:30 13.3 99.1 1025.8 14.7 SW 21.5 SW 0.0 0.1
00:35 13.3 99.1 1025.8 15.5 SW 22.2 SW 0.0 0.1
00:40 13.3 99.1 1025.8 16.3 SW 20.5 SW 0.0 0.1
00:45 13.3 99.1 1025.8 14.7 SW 19.1 WSW 0.0 0.1
00:50 13.3 99.2 1025.8 14.1 SW 19.1 SW 0.0 0.1
00:55 13.3 99.2 1025.7 15.4 SW 20.1 SW 0.0 0.1
01:00 13.3 99.2 1025.8 16.0 SW 20.1 SW 0.0 0.1
01:05 13.2 99.2 1025.7 16.0 SW 19.4 SW 0.0 0.1
01:10 13.2 99.2 1025.8 15.7 SW 19.4 SW 0.0 0.1
01:15 13.2 99.3 1025.8 16.1 SW 20.5 SW 0.0 0.1
01:20 13.2 99.3 1025.8 14.8 SW 19.4 SW 0.0 0.1
01:25 13.2 99.3 1025.8 14.8 SW 20.5 SW 0.0 0.1
01:30 13.2 99.3 1025.7 15.8 SW 24.7 WSW 0.0 0.1
01:35 13.2 99.3 1025.7 15.7 SW 23.3 SW 0.0 0.1
01:40 13.2 99.3 1025.6 15.9 SW 21.9 SW 0.0 0.1
01:45 13.3 99.4 1025.6 19.2 SW 25.8 WSW 0.0 0.1
01:50 13.2 99.3 1025.5 17.6 SW 23.3 SW 0.0 0.1
01:55 13.2 99.3 1025.5 18.7 WSW 25.4 WSW 0.0 0.1
02:00 13.2 99.4 1025.5 18.5 WSW 26.1 SW 0.0 0.1
02:05 13.1 99.3 1025.5 17.1 WSW 24.0 WSW 0.0 0.1
02:10 13.1 99.3 1025.5 16.8 WSW 23.7 WSW 0.0 0.1
02:15 13.0 99.3 1025.5 15.6 WSW 21.9 WSW 0.0 0.1
02:20 13.0 99.3 1025.5 14.9 WSW 19.8 SW 0.0 0.1
02:25 12.9 99.4 1025.5 16.3 SW 21.9 WSW 0.0 0.1
02:30 12.9 99.4 1025.5 15.9 WSW 21.2 WSW 0.0 0.1
02:35 12.9 99.4 1025.4 15.4 SW 21.2 WSW 0.0 0.1
02:40 12.9 99.4 1025.4 17.3 SW 25.4 SW 0.0 0.1
02:45 12.8 99.4 1025.3 17.7 SW 24.4 SW 0.0 0.1
02:50 12.8 99.4 1025.2 19.5 SW 25.4 SW 0.0 0.1
02:55 12.8 99.4 1025.2 19.1 SW 26.8 WSW 0.0 0.1
03:00 12.8 99.4 1025.2 20.8 SW 28.6 WSW 0.0 0.1
03:05 12.8 99.4 1025.1 21.7 SW 28.9 WSW 0.0 0.1
03:10 12.8 99.4 1025.1 22.8 SW 30.0 WSW 0.0 0.1
03:15 12.7 99.4 1025.1 22.0 SW 30.0 SW 0.0 0.1
03:20 12.7 99.4 1025.1 19.9 SW 27.2 WSW 0.0 0.1
03:25 12.7 99.5 1025.1 20.9 SW 29.3 SW 0.0 0.1
03:30 12.7 99.5 1025.1 20.2 SW 27.5 WSW 0.0 0.1
03:35 12.7 99.5 1025.1 20.9 SW 30.4 SW 0.0 0.1
03:40 12.7 99.5 1025.0 22.0 SW 29.3 SW 0.0 0.1
03:45 12.7 99.5 1025.0 20.9 SW 30.4 WSW 0.0 0.1
03:50 12.6 99.5 1025.0 21.0 SW 30.4 SW 0.0 0.1
03:55 12.7 99.5 1025.0 21.5 SW 30.0 WSW 0.0 0.1
04:00 12.7 99.6 1025.0 22.4 SW 31.8 SW 0.0 0.1
04:05 12.7 99.6 1025.0 22.6 SW 32.5 SW 0.0 0.1
04:10 12.7 99.5 1025.1 22.0 SW 29.7 SW 0.0 0.1
04:15 12.6 99.6 1025.1 21.3 SW 28.6 WSW 0.0 0.1
04:20 12.6 99.6 1025.1 23.0 SW 30.4 WSW 0.0 0.1
04:25 12.6 99.6 1025.2 19.7 SW 27.2 SW 0.0 0.1
04:30 12.6 99.6 1025.3 20.5 SW 29.3 WSW 0.0 0.1
04:35 12.5 99.6 1025.2 21.6 SW 28.9 SW 0.0 0.1
04:40 12.5 99.6 1025.3 19.8 SW 31.1 WSW 0.0 0.1
04:45 12.5 99.6 1025.3 17.9 SW 27.5 WSW 0.0 0.1
04:50 12.4 99.6 1025.2 19.6 SW 26.5 SW 0.0 0.1
04:55 12.4 99.6 1025.2 19.0 SW 25.1 WSW 0.0 0.1
05:00 12.3 99.6 1025.2 20.2 SW 26.8 WSW 0.0 0.1
05:05 12.3 99.6 1025.2 20.0 SW 27.5 SW 0.0 0.1
05:10 12.3 99.6 1025.2 19.1 SW 26.5 SW 0.0 0.1
05:15 12.2 99.6 1025.1 21.9 SW 28.9 SW 0.0 0.1
05:20 12.2 99.6 1025.2 19.8 SW 26.5 WSW 0.0 0.1
05:25 12.2 99.6 1025.3 19.4 WSW 24.0 SW 0.0 0.1
05:30 12.1 99.6 1025.3 19.3 WSW 25.8 WSW 0.0 0.1
05:35 12.1 99.7 1025.3 19.4 SW 24.7 SW 0.0 0.1
05:40 12.1 99.6 1025.4 18.9 SW 23.7 SW 0.0 0.1
05:45 12.0 99.7 1025.3 18.7 SW 24.4 SW 0.0 0.1
05:50 12.0 99.7 1025.3 18.8 SW 25.1 SW 0.0 0.2
05:55 12.0 99.7 1025.3 19.9 SW 25.8 SW 0.1 0.4
Máxima 13.4 99.7 1025.8 23.0 SW 32.5 SW 0.1 0.4
Mínima 11.9 99.0 1025.0
Total 0.1